Other Surface Observations
Issued by NWS Missoula, MT

Home | Current Version | Previous Version | Text Only | Print | Product List | Glossary On
Versions: 1 2 3 4 5 6 7 8 9 10 11 12 13 14 15 16 17 18 19 20 21 22 23 24 25 26 27 28 29 30 31 32 33 34 35 36 37 38 39 40 41 42 43 44 45 46 47 48 49 50
000
SXUS55 KMSO 030343
OSOMSO
MONTANA AWOS SUMMARY
NATIONAL WEATHER SERVICE MISSOULA MT
943 PM MDT WED SEP 2 2015

Montana AWOS Reports

LAUREL      |K6S8 030335Z AUTO 00000KT 40SM 23/00 A2976 RMK AO1 T02330000
TWIN BRIDGES|K7S1 030335Z AUTO 34010G14KT 25SM 22/00 A2984 RMK AO1 T02170000
ROUNDUP     |KRPX 030335Z AUTO 31009G14KT 40SM 25/01 A2969 RMK AO1 T02500006
MALTA       |KM75 030335Z AUTO 31011G21KT 25SM 24/04 A2969 RMK AO1 T02440039




USA.gov is the U.S. government's official web portal to all federal, state and local government web resources and services.